sensor_id;sensor_type;location;lat;lon;timestamp;P1;durP1;ratioP1;P2;durP2;ratioP2
27305;SDS011;14792;50.886;6.468;2024-02-04T00:01:30;10.48;;;7.97;;
27305;SDS011;14792;50.886;6.468;2024-02-04T00:04:32;10.15;;;7.92;;
27305;SDS011;14792;50.886;6.468;2024-02-04T00:07:34;10.00;;;7.85;;
27305;SDS011;14792;50.886;6.468;2024-02-04T00:10:35;9.45;;;6.75;;
27305;SDS011;14792;50.886;6.468;2024-02-04T00:13:37;6.72;;;5.85;;
27305;SDS011;14792;50.886;6.468;2024-02-04T00:16:41;8.68;;;6.85;;
27305;SDS011;14792;50.886;6.468;2024-02-04T00:19:43;7.55;;;5.20;;
27305;SDS011;14792;50.886;6.468;2024-02-04T00:22:44;6.20;;;4.80;;
27305;SDS011;14792;50.886;6.468;2024-02-04T00:25:46;5.37;;;4.28;;
27305;SDS011;14792;50.886;6.468;2024-02-04T00:28:48;6.37;;;4.30;;
27305;SDS011;14792;50.886;6.468;2024-02-04T00:31:49;5.37;;;4.40;;
27305;SDS011;14792;50.886;6.468;2024-02-04T00:34:51;5.33;;;4.03;;
27305;SDS011;14792;50.886;6.468;2024-02-04T00:37:52;6.15;;;3.72;;
27305;SDS011;14792;50.886;6.468;2024-02-04T00:40:54;4.47;;;3.70;;
27305;SDS011;14792;50.886;6.468;2024-02-04T00:43:56;5.12;;;3.87;;
27305;SDS011;14792;50.886;6.468;2024-02-04T00:46:57;4.60;;;3.70;;
27305;SDS011;14792;50.886;6.468;2024-02-04T00:49:59;7.30;;;3.72;;
27305;SDS011;14792;50.886;6.468;2024-02-04T00:53:00;4.87;;;3.55;;
27305;SDS011;14792;50.886;6.468;2024-02-04T00:56:05;8.90;;;3.65;;
27305;SDS011;14792;50.886;6.468;2024-02-04T00:59:07;3.70;;;2.80;;
27305;SDS011;14792;50.886;6.468;2024-02-04T01:02:08;3.75;;;2.72;;
27305;SDS011;14792;50.886;6.468;2024-02-04T01:05:10;4.62;;;3.00;;
27305;SDS011;14792;50.886;6.468;2024-02-04T01:08:11;3.42;;;2.72;;
27305;SDS011;14792;50.886;6.468;2024-02-04T01:11:13;4.08;;;2.92;;
27305;SDS011;14792;50.886;6.468;2024-02-04T01:14:15;4.65;;;3.00;;
27305;SDS011;14792;50.886;6.468;2024-02-04T01:17:16;3.92;;;3.08;;
27305;SDS011;14792;50.886;6.468;2024-02-04T01:20:18;3.85;;;3.05;;
27305;SDS011;14792;50.886;6.468;2024-02-04T01:23:19;4.42;;;3.50;;
27305;SDS011;14792;50.886;6.468;2024-02-04T01:26:21;5.87;;;3.45;;
27305;SDS011;14792;50.886;6.468;2024-02-04T01:29:22;4.10;;;3.20;;
27305;SDS011;14792;50.886;6.468;2024-02-04T01:32:24;4.12;;;3.17;;
27305;SDS011;14792;50.886;6.468;2024-02-04T01:35:26;4.35;;;2.80;;
27305;SDS011;14792;50.886;6.468;2024-02-04T01:38:27;4.20;;;3.10;;
27305;SDS011;14792;50.886;6.468;2024-02-04T01:41:29;4.78;;;2.60;;
27305;SDS011;14792;50.886;6.468;2024-02-04T01:44:30;2.92;;;2.62;;
27305;SDS011;14792;50.886;6.468;2024-02-04T01:47:32;3.92;;;2.80;;
27305;SDS011;14792;50.886;6.468;2024-02-04T01:50:34;3.22;;;2.50;;
27305;SDS011;14792;50.886;6.468;2024-02-04T01:53:35;4.65;;;2.85;;
27305;SDS011;14792;50.886;6.468;2024-02-04T01:56:37;4.12;;;2.83;;
27305;SDS011;14792;50.886;6.468;2024-02-04T01:59:38;3.92;;;2.98;;
27305;SDS011;14792;50.886;6.468;2024-02-04T02:02:40;3.80;;;2.90;;
27305;SDS011;14792;50.886;6.468;2024-02-04T02:05:41;4.83;;;2.83;;
27305;SDS011;14792;50.886;6.468;2024-02-04T02:08:43;3.77;;;2.80;;
27305;SDS011;14792;50.886;6.468;2024-02-04T02:11:46;3.72;;;3.02;;
27305;SDS011;14792;50.886;6.468;2024-02-04T02:14:55;5.75;;;2.85;;
27305;SDS011;14792;50.886;6.468;2024-02-04T02:17:55;4.62;;;3.12;;
27305;SDS011;14792;50.886;6.468;2024-02-04T02:21:13;4.42;;;3.10;;
27305;SDS011;14792;50.886;6.468;2024-02-04T02:27:15;4.33;;;3.27;;
27305;SDS011;14792;50.886;6.468;2024-02-04T02:30:17;5.83;;;3.52;;
27305;SDS011;14792;50.886;6.468;2024-02-04T02:33:18;5.42;;;3.45;;
27305;SDS011;14792;50.886;6.468;2024-02-04T02:36:21;4.25;;;3.22;;
27305;SDS011;14792;50.886;6.468;2024-02-04T02:39:23;4.20;;;3.33;;
27305;SDS011;14792;50.886;6.468;2024-02-04T02:42:23;4.70;;;3.80;;
27305;SDS011;14792;50.886;6.468;2024-02-04T02:45:25;6.17;;;3.75;;
27305;SDS011;14792;50.886;6.468;2024-02-04T02:48:26;5.08;;;4.25;;
27305;SDS011;14792;50.886;6.468;2024-02-04T02:51:28;5.12;;;4.17;;
27305;SDS011;14792;50.886;6.468;2024-02-04T02:54:29;5.50;;;3.83;;
27305;SDS011;14792;50.886;6.468;2024-02-04T02:57:31;7.20;;;4.22;;
27305;SDS011;14792;50.886;6.468;2024-02-04T03:00:33;5.92;;;3.85;;
27305;SDS011;14792;50.886;6.468;2024-02-04T03:03:34;6.15;;;4.20;;
27305;SDS011;14792;50.886;6.468;2024-02-04T03:06:36;6.28;;;3.98;;
27305;SDS011;14792;50.886;6.468;2024-02-04T03:09:37;5.22;;;3.98;;
27305;SDS011;14792;50.886;6.468;2024-02-04T03:12:39;5.33;;;4.08;;
27305;SDS011;14792;50.886;6.468;2024-02-04T03:15:41;6.87;;;4.70;;
27305;SDS011;14792;50.886;6.468;2024-02-04T03:18:43;6.87;;;4.60;;
27305;SDS011;14792;50.886;6.468;2024-02-04T03:21:44;6.05;;;5.03;;
27305;SDS011;14792;50.886;6.468;2024-02-04T03:24:45;8.30;;;5.35;;
27305;SDS011;14792;50.886;6.468;2024-02-04T03:27:47;8.15;;;4.92;;
27305;SDS011;14792;50.886;6.468;2024-02-04T03:30:49;6.50;;;5.00;;
27305;SDS011;14792;50.886;6.468;2024-02-04T03:33:50;5.83;;;5.08;;
27305;SDS011;14792;50.886;6.468;2024-02-04T03:36:52;6.22;;;5.00;;
27305;SDS011;14792;50.886;6.468;2024-02-04T03:39:53;7.97;;;5.22;;
27305;SDS011;14792;50.886;6.468;2024-02-04T03:42:55;5.92;;;4.78;;
27305;SDS011;14792;50.886;6.468;2024-02-04T03:45:56;8.15;;;5.08;;
27305;SDS011;14792;50.886;6.468;2024-02-04T03:48:58;5.53;;;4.78;;
27305;SDS011;14792;50.886;6.468;2024-02-04T03:52:00;8.68;;;5.12;;
27305;SDS011;14792;50.886;6.468;2024-02-04T03:55:01;9.78;;;5.37;;
27305;SDS011;14792;50.886;6.468;2024-02-04T03:58:03;7.20;;;4.90;;
27305;SDS011;14792;50.886;6.468;2024-02-04T04:01:04;7.10;;;5.22;;
27305;SDS011;14792;50.886;6.468;2024-02-04T04:04:06;10.05;;;5.35;;
27305;SDS011;14792;50.886;6.468;2024-02-04T04:07:08;8.45;;;5.08;;
27305;SDS011;14792;50.886;6.468;2024-02-04T04:10:09;7.03;;;5.30;;
27305;SDS011;14792;50.886;6.468;2024-02-04T04:13:11;7.58;;;5.62;;
27305;SDS011;14792;50.886;6.468;2024-02-04T04:16:12;7.20;;;5.37;;
27305;SDS011;14792;50.886;6.468;2024-02-04T04:19:14;7.35;;;5.50;;
27305;SDS011;14792;50.886;6.468;2024-02-04T04:22:17;7.67;;;5.12;;
27305;SDS011;14792;50.886;6.468;2024-02-04T04:25:18;9.78;;;5.75;;
27305;SDS011;14792;50.886;6.468;2024-02-04T04:28:20;8.53;;;6.15;;
27305;SDS011;14792;50.886;6.468;2024-02-04T04:31:21;8.65;;;6.55;;
27305;SDS011;14792;50.886;6.468;2024-02-04T04:34:23;9.03;;;6.47;;
27305;SDS011;14792;50.886;6.468;2024-02-04T04:37:25;9.28;;;6.33;;
27305;SDS011;14792;50.886;6.468;2024-02-04T04:40:26;10.72;;;6.03;;
27305;SDS011;14792;50.886;6.468;2024-02-04T04:43:28;8.33;;;6.08;;
27305;SDS011;14792;50.886;6.468;2024-02-04T04:46:29;8.20;;;5.87;;
27305;SDS011;14792;50.886;6.468;2024-02-04T04:49:31;10.18;;;6.40;;
27305;SDS011;14792;50.886;6.468;2024-02-04T04:52:33;7.67;;;5.92;;
27305;SDS011;14792;50.886;6.468;2024-02-04T04:55:34;7.62;;;5.55;;
27305;SDS011;14792;50.886;6.468;2024-02-04T04:58:36;6.55;;;5.28;;
27305;SDS011;14792;50.886;6.468;2024-02-04T05:01:37;11.35;;;6.15;;
27305;SDS011;14792;50.886;6.468;2024-02-04T05:04:42;7.37;;;4.95;;
27305;SDS011;14792;50.886;6.468;2024-02-04T05:07:40;6.87;;;5.62;;
27305;SDS011;14792;50.886;6.468;2024-02-04T05:10:42;9.98;;;5.85;;
27305;SDS011;14792;50.886;6.468;2024-02-04T05:13:44;10.75;;;5.65;;
27305;SDS011;14792;50.886;6.468;2024-02-04T05:16:45;8.88;;;6.12;;
27305;SDS011;14792;50.886;6.468;2024-02-04T05:19:47;9.43;;;6.67;;
27305;SDS011;14792;50.886;6.468;2024-02-04T05:22:48;9.45;;;6.90;;
27305;SDS011;14792;50.886;6.468;2024-02-04T05:25:50;11.85;;;7.05;;
27305;SDS011;14792;50.886;6.468;2024-02-04T05:28:52;9.83;;;6.55;;
27305;SDS011;14792;50.886;6.468;2024-02-04T05:31:53;9.70;;;7.40;;
27305;SDS011;14792;50.886;6.468;2024-02-04T05:34:55;10.53;;;7.50;;
27305;SDS011;14792;50.886;6.468;2024-02-04T05:37:56;10.95;;;7.00;;
27305;SDS011;14792;50.886;6.468;2024-02-04T05:40:58;9.53;;;7.40;;
27305;SDS011;14792;50.886;6.468;2024-02-04T05:44:00;9.53;;;7.65;;
27305;SDS011;14792;50.886;6.468;2024-02-04T05:47:01;9.58;;;6.67;;
27305;SDS011;14792;50.886;6.468;2024-02-04T05:50:03;11.33;;;6.62;;
27305;SDS011;14792;50.886;6.468;2024-02-04T05:53:04;7.55;;;5.65;;
27305;SDS011;14792;50.886;6.468;2024-02-04T05:56:06;6.47;;;5.42;;
27305;SDS011;14792;50.886;6.468;2024-02-04T05:59:07;6.70;;;4.40;;
27305;SDS011;14792;50.886;6.468;2024-02-04T06:02:09;5.83;;;3.80;;
27305;SDS011;14792;50.886;6.468;2024-02-04T06:05:14;3.47;;;2.70;;
27305;SDS011;14792;50.886;6.468;2024-02-04T06:08:15;3.17;;;2.75;;
27305;SDS011;14792;50.886;6.468;2024-02-04T06:11:17;2.47;;;2.12;;
27305;SDS011;14792;50.886;6.468;2024-02-04T06:14:18;2.17;;;1.85;;
27305;SDS011;14792;50.886;6.468;2024-02-04T06:17:20;3.12;;;1.77;;
27305;SDS011;14792;50.886;6.468;2024-02-04T06:20:22;2.20;;;1.82;;
27305;SDS011;14792;50.886;6.468;2024-02-04T06:23:23;3.00;;;2.00;;
27305;SDS011;14792;50.886;6.468;2024-02-04T06:26:25;3.40;;;2.60;;
27305;SDS011;14792;50.886;6.468;2024-02-04T06:29:26;3.05;;;2.17;;
27305;SDS011;14792;50.886;6.468;2024-02-04T06:32:28;3.35;;;2.15;;
27305;SDS011;14792;50.886;6.468;2024-02-04T06:35:29;3.77;;;2.40;;
27305;SDS011;14792;50.886;6.468;2024-02-04T06:38:31;4.42;;;2.65;;
27305;SDS011;14792;50.886;6.468;2024-02-04T06:41:33;4.87;;;2.80;;
27305;SDS011;14792;50.886;6.468;2024-02-04T06:44:34;4.50;;;2.77;;
27305;SDS011;14792;50.886;6.468;2024-02-04T06:47:36;4.03;;;2.77;;
27305;SDS011;14792;50.886;6.468;2024-02-04T06:50:37;4.83;;;3.02;;
27305;SDS011;14792;50.886;6.468;2024-02-04T06:53:39;4.30;;;2.92;;
27305;SDS011;14792;50.886;6.468;2024-02-04T06:56:41;3.30;;;2.77;;
27305;SDS011;14792;50.886;6.468;2024-02-04T06:59:42;3.52;;;2.90;;
27305;SDS011;14792;50.886;6.468;2024-02-04T07:02:44;4.25;;;2.87;;
27305;SDS011;14792;50.886;6.468;2024-02-04T07:05:45;4.50;;;2.92;;
27305;SDS011;14792;50.886;6.468;2024-02-04T07:08:47;6.08;;;3.45;;
27305;SDS011;14792;50.886;6.468;2024-02-04T07:11:49;4.00;;;2.90;;
27305;SDS011;14792;50.886;6.468;2024-02-04T07:14:50;4.42;;;3.25;;
27305;SDS011;14792;50.886;6.468;2024-02-04T07:17:52;5.42;;;3.70;;
27305;SDS011;14792;50.886;6.468;2024-02-04T07:20:53;6.87;;;4.12;;
27305;SDS011;14792;50.886;6.468;2024-02-04T07:23:55;4.50;;;3.70;;
27305;SDS011;14792;50.886;6.468;2024-02-04T07:26:56;6.55;;;3.70;;
27305;SDS011;14792;50.886;6.468;2024-02-04T07:29:58;7.10;;;3.58;;
27305;SDS011;14792;50.886;6.468;2024-02-04T07:33:00;6.70;;;3.37;;
27305;SDS011;14792;50.886;6.468;2024-02-04T07:36:01;4.20;;;3.60;;
27305;SDS011;14792;50.886;6.468;2024-02-04T07:39:03;4.67;;;3.60;;
27305;SDS011;14792;50.886;6.468;2024-02-04T07:42:04;3.75;;;2.90;;
27305;SDS011;14792;50.886;6.468;2024-02-04T07:45:06;5.45;;;2.92;;
27305;SDS011;14792;50.886;6.468;2024-02-04T07:48:08;5.85;;;2.80;;
27305;SDS011;14792;50.886;6.468;2024-02-04T07:51:09;3.90;;;2.80;;
27305;SDS011;14792;50.886;6.468;2024-02-04T07:54:11;4.78;;;2.83;;
27305;SDS011;14792;50.886;6.468;2024-02-04T07:57:12;5.47;;;2.83;;
27305;SDS011;14792;50.886;6.468;2024-02-04T08:00:14;5.40;;;2.75;;
27305;SDS011;14792;50.886;6.468;2024-02-04T08:03:16;4.42;;;2.90;;
27305;SDS011;14792;50.886;6.468;2024-02-04T08:06:17;7.37;;;3.35;;
27305;SDS011;14792;50.886;6.468;2024-02-04T08:09:19;6.47;;;3.60;;
27305;SDS011;14792;50.886;6.468;2024-02-04T08:12:20;7.95;;;3.20;;
27305;SDS011;14792;50.886;6.468;2024-02-04T08:15:22;5.12;;;3.50;;
27305;SDS011;14792;50.886;6.468;2024-02-04T08:18:24;6.78;;;3.70;;
27305;SDS011;14792;50.886;6.468;2024-02-04T08:21:25;7.55;;;3.65;;
27305;SDS011;14792;50.886;6.468;2024-02-04T08:24:27;4.55;;;3.00;;
27305;SDS011;14792;50.886;6.468;2024-02-04T08:27:28;5.80;;;3.45;;
27305;SDS011;14792;50.886;6.468;2024-02-04T08:30:30;3.60;;;2.90;;
27305;SDS011;14792;50.886;6.468;2024-02-04T08:33:31;4.37;;;2.60;;
27305;SDS011;14792;50.886;6.468;2024-02-04T08:36:33;4.10;;;2.60;;
27305;SDS011;14792;50.886;6.468;2024-02-04T08:39:35;3.37;;;2.05;;
27305;SDS011;14792;50.886;6.468;2024-02-04T08:42:36;1.92;;;1.70;;
27305;SDS011;14792;50.886;6.468;2024-02-04T08:45:38;3.10;;;2.55;;
27305;SDS011;14792;50.886;6.468;2024-02-04T08:48:40;3.67;;;1.85;;
27305;SDS011;14792;50.886;6.468;2024-02-04T08:51:41;1.95;;;1.35;;
27305;SDS011;14792;50.886;6.468;2024-02-04T08:54:43;2.02;;;1.47;;
27305;SDS011;14792;50.886;6.468;2024-02-04T08:57:44;2.90;;;1.60;;
27305;SDS011;14792;50.886;6.468;2024-02-04T09:00:46;2.75;;;1.55;;
27305;SDS011;14792;50.886;6.468;2024-02-04T09:03:47;1.95;;;1.55;;
27305;SDS011;14792;50.886;6.468;2024-02-04T09:06:49;2.65;;;1.70;;
27305;SDS011;14792;50.886;6.468;2024-02-04T09:09:50;2.30;;;1.62;;
27305;SDS011;14792;50.886;6.468;2024-02-04T09:12:52;2.95;;;1.50;;
27305;SDS011;14792;50.886;6.468;2024-02-04T09:15:54;2.35;;;2.00;;
27305;SDS011;14792;50.886;6.468;2024-02-04T09:18:55;2.02;;;1.82;;
27305;SDS011;14792;50.886;6.468;2024-02-04T09:21:57;5.00;;;1.98;;
27305;SDS011;14792;50.886;6.468;2024-02-04T09:24:58;2.10;;;1.85;;
27305;SDS011;14792;50.886;6.468;2024-02-04T09:28:00;3.58;;;1.92;;
27305;SDS011;14792;50.886;6.468;2024-02-04T09:31:02;3.70;;;2.00;;
27305;SDS011;14792;50.886;6.468;2024-02-04T09:34:03;2.30;;;1.80;;
27305;SDS011;14792;50.886;6.468;2024-02-04T09:37:05;2.42;;;1.80;;
27305;SDS011;14792;50.886;6.468;2024-02-04T09:40:06;2.12;;;1.77;;
27305;SDS011;14792;50.886;6.468;2024-02-04T09:43:08;3.40;;;2.40;;
27305;SDS011;14792;50.886;6.468;2024-02-04T09:46:10;2.25;;;1.92;;
27305;SDS011;14792;50.886;6.468;2024-02-04T09:49:11;3.60;;;2.42;;
27305;SDS011;14792;50.886;6.468;2024-02-04T09:52:13;3.33;;;2.25;;
27305;SDS011;14792;50.886;6.468;2024-02-04T09:55:15;3.83;;;2.30;;
27305;SDS011;14792;50.886;6.468;2024-02-04T09:58:16;7.40;;;2.60;;
27305;SDS011;14792;50.886;6.468;2024-02-04T10:01:18;4.17;;;2.10;;
27305;SDS011;14792;50.886;6.468;2024-02-04T10:04:19;6.15;;;2.33;;
27305;SDS011;14792;50.886;6.468;2024-02-04T10:07:21;5.08;;;2.85;;
27305;SDS011;14792;50.886;6.468;2024-02-04T10:10:22;4.55;;;2.20;;
27305;SDS011;14792;50.886;6.468;2024-02-04T10:13:24;3.10;;;2.55;;
27305;SDS011;14792;50.886;6.468;2024-02-04T10:16:26;4.72;;;2.40;;
27305;SDS011;14792;50.886;6.468;2024-02-04T10:19:27;4.80;;;2.30;;
27305;SDS011;14792;50.886;6.468;2024-02-04T10:22:29;2.35;;;2.02;;
27305;SDS011;14792;50.886;6.468;2024-02-04T10:25:30;2.20;;;1.72;;
27305;SDS011;14792;50.886;6.468;2024-02-04T10:28:32;2.12;;;1.50;;
27305;SDS011;14792;50.886;6.468;2024-02-04T10:31:33;3.20;;;1.60;;
27305;SDS011;14792;50.886;6.468;2024-02-04T10:34:38;2.83;;;1.50;;
27305;SDS011;14792;50.886;6.468;2024-02-04T10:37:39;2.27;;;1.30;;
27305;SDS011;14792;50.886;6.468;2024-02-04T10:40:41;1.65;;;1.10;;
27305;SDS011;14792;50.886;6.468;2024-02-04T10:43:43;3.12;;;1.30;;
27305;SDS011;14792;50.886;6.468;2024-02-04T10:46:46;1.37;;;0.90;;
27305;SDS011;14792;50.886;6.468;2024-02-04T10:49:47;1.67;;;0.98;;
27305;SDS011;14792;50.886;6.468;2024-02-04T10:52:47;1.02;;;0.93;;
27305;SDS011;14792;50.886;6.468;2024-02-04T10:55:49;1.67;;;1.37;;
27305;SDS011;14792;50.886;6.468;2024-02-04T10:58:50;1.32;;;1.22;;
27305;SDS011;14792;50.886;6.468;2024-02-04T11:01:52;1.50;;;1.30;;
27305;SDS011;14792;50.886;6.468;2024-02-04T11:04:54;1.82;;;1.50;;
27305;SDS011;14792;50.886;6.468;2024-02-04T11:07:55;2.72;;;1.77;;
27305;SDS011;14792;50.886;6.468;2024-02-04T11:10:57;4.17;;;2.05;;
27305;SDS011;14792;50.886;6.468;2024-02-04T11:14:00;3.12;;;1.85;;
27305;SDS011;14792;50.886;6.468;2024-02-04T11:20:44;3.67;;;2.80;;
27305;SDS011;14792;50.886;6.468;2024-02-04T11:27:20;4.55;;;3.22;;
27305;SDS011;14792;50.886;6.468;2024-02-04T11:30:22;5.22;;;3.47;;
27305;SDS011;14792;50.886;6.468;2024-02-04T11:33:23;6.12;;;3.58;;
27305;SDS011;14792;50.886;6.468;2024-02-04T11:36:25;5.87;;;3.50;;
27305;SDS011;14792;50.886;6.468;2024-02-04T11:39:27;5.87;;;3.42;;
27305;SDS011;14792;50.886;6.468;2024-02-04T11:42:31;5.80;;;3.47;;
27305;SDS011;14792;50.886;6.468;2024-02-04T11:45:33;4.17;;;2.70;;
27305;SDS011;14792;50.886;6.468;2024-02-04T11:48:34;5.87;;;2.67;;
27305;SDS011;14792;50.886;6.468;2024-02-04T11:51:36;3.30;;;2.27;;
27305;SDS011;14792;50.886;6.468;2024-02-04T11:54:37;2.62;;;1.90;;
27305;SDS011;14792;50.886;6.468;2024-02-04T11:57:39;2.27;;;1.77;;
27305;SDS011;14792;50.886;6.468;2024-02-04T12:00:43;3.20;;;1.57;;
27305;SDS011;14792;50.886;6.468;2024-02-04T12:03:45;2.83;;;1.70;;
27305;SDS011;14792;50.886;6.468;2024-02-04T12:06:46;2.83;;;1.77;;
27305;SDS011;14792;50.886;6.468;2024-02-04T12:09:48;2.80;;;1.52;;
27305;SDS011;14792;50.886;6.468;2024-02-04T12:12:49;5.20;;;2.30;;
27305;SDS011;14792;50.886;6.468;2024-02-04T12:15:51;3.65;;;1.92;;
27305;SDS011;14792;50.886;6.468;2024-02-04T12:18:53;2.92;;;2.12;;
27305;SDS011;14792;50.886;6.468;2024-02-04T12:21:54;3.37;;;2.08;;
27305;SDS011;14792;50.886;6.468;2024-02-04T12:24:56;2.80;;;1.98;;
27305;SDS011;14792;50.886;6.468;2024-02-04T12:27:58;2.75;;;1.72;;
27305;SDS011;14792;50.886;6.468;2024-02-04T12:30:59;2.10;;;1.90;;
27305;SDS011;14792;50.886;6.468;2024-02-04T12:34:01;3.50;;;2.40;;
27305;SDS011;14792;50.886;6.468;2024-02-04T12:37:02;2.75;;;2.25;;
27305;SDS011;14792;50.886;6.468;2024-02-04T12:40:04;3.02;;;1.92;;
27305;SDS011;14792;50.886;6.468;2024-02-04T12:43:05;5.03;;;2.85;;
27305;SDS011;14792;50.886;6.468;2024-02-04T12:46:07;4.78;;;3.12;;
27305;SDS011;14792;50.886;6.468;2024-02-04T12:49:09;4.22;;;2.90;;
27305;SDS011;14792;50.886;6.468;2024-02-04T12:52:10;6.05;;;3.25;;
27305;SDS011;14792;50.886;6.468;2024-02-04T12:55:25;3.30;;;2.60;;
27305;SDS011;14792;50.886;6.468;2024-02-04T12:58:25;5.05;;;2.67;;
27305;SDS011;14792;50.886;6.468;2024-02-04T13:01:27;2.85;;;2.50;;
27305;SDS011;14792;50.886;6.468;2024-02-04T13:04:38;7.50;;;2.58;;
27305;SDS011;14792;50.886;6.468;2024-02-04T13:07:39;3.72;;;2.60;;
27305;SDS011;14792;50.886;6.468;2024-02-04T13:10:40;3.80;;;2.40;;
27305;SDS011;14792;50.886;6.468;2024-02-04T13:13:42;2.80;;;2.00;;
27305;SDS011;14792;50.886;6.468;2024-02-04T13:16:44;2.98;;;2.15;;
27305;SDS011;14792;50.886;6.468;2024-02-04T13:19:45;2.30;;;1.82;;
27305;SDS011;14792;50.886;6.468;2024-02-04T13:22:47;2.00;;;1.80;;
27305;SDS011;14792;50.886;6.468;2024-02-04T13:25:48;2.25;;;1.70;;
27305;SDS011;14792;50.886;6.468;2024-02-04T13:28:50;3.42;;;1.72;;
27305;SDS011;14792;50.886;6.468;2024-02-04T13:31:51;3.45;;;1.65;;
27305;SDS011;14792;50.886;6.468;2024-02-04T13:34:53;3.52;;;2.22;;
27305;SDS011;14792;50.886;6.468;2024-02-04T13:37:55;2.08;;;1.72;;
27305;SDS011;14792;50.886;6.468;2024-02-04T13:40:56;2.10;;;1.42;;
27305;SDS011;14792;50.886;6.468;2024-02-04T13:43:58;1.95;;;1.45;;
27305;SDS011;14792;50.886;6.468;2024-02-04T13:46:59;3.77;;;1.30;;
27305;SDS011;14792;50.886;6.468;2024-02-04T13:50:01;2.12;;;1.45;;
27305;SDS011;14792;50.886;6.468;2024-02-04T13:53:03;1.42;;;1.32;;
27305;SDS011;14792;50.886;6.468;2024-02-04T13:56:04;2.75;;;1.25;;
27305;SDS011;14792;50.886;6.468;2024-02-04T13:59:06;2.85;;;1.65;;
27305;SDS011;14792;50.886;6.468;2024-02-04T14:02:07;1.50;;;1.30;;
27305;SDS011;14792;50.886;6.468;2024-02-04T14:05:12;2.60;;;1.20;;
27305;SDS011;14792;50.886;6.468;2024-02-04T14:08:13;3.33;;;1.62;;
27305;SDS011;14792;50.886;6.468;2024-02-04T14:11:15;2.90;;;1.20;;
27305;SDS011;14792;50.886;6.468;2024-02-04T14:14:16;2.55;;;1.20;;
27305;SDS011;14792;50.886;6.468;2024-02-04T14:17:18;2.52;;;1.30;;
27305;SDS011;14792;50.886;6.468;2024-02-04T14:20:19;3.60;;;1.92;;
27305;SDS011;14792;50.886;6.468;2024-02-04T14:23:21;2.65;;;1.77;;
27305;SDS011;14792;50.886;6.468;2024-02-04T14:26:23;2.65;;;1.92;;
27305;SDS011;14792;50.886;6.468;2024-02-04T14:29:24;2.33;;;1.60;;
27305;SDS011;14792;50.886;6.468;2024-02-04T14:32:26;2.00;;;1.77;;
27305;SDS011;14792;50.886;6.468;2024-02-04T14:35:27;3.55;;;2.00;;
27305;SDS011;14792;50.886;6.468;2024-02-04T14:38:29;4.60;;;3.65;;
27305;SDS011;14792;50.886;6.468;2024-02-04T14:41:31;3.77;;;2.30;;
27305;SDS011;14792;50.886;6.468;2024-02-04T14:44:32;3.95;;;2.40;;
27305;SDS011;14792;50.886;6.468;2024-02-04T14:47:34;5.78;;;3.20;;
27305;SDS011;14792;50.886;6.468;2024-02-04T14:50:35;4.60;;;2.85;;
27305;SDS011;14792;50.886;6.468;2024-02-04T14:53:37;3.22;;;2.20;;
27305;SDS011;14792;50.886;6.468;2024-02-04T14:56:39;2.50;;;2.30;;
27305;SDS011;14792;50.886;6.468;2024-02-04T14:59:40;6.37;;;2.80;;
27305;SDS011;14792;50.886;6.468;2024-02-04T15:02:42;4.45;;;2.95;;
27305;SDS011;14792;50.886;6.468;2024-02-04T15:05:43;4.25;;;2.55;;
27305;SDS011;14792;50.886;6.468;2024-02-04T15:08:45;3.45;;;2.47;;
27305;SDS011;14792;50.886;6.468;2024-02-04T15:11:47;3.33;;;2.35;;
27305;SDS011;14792;50.886;6.468;2024-02-04T15:14:48;3.02;;;2.45;;
27305;SDS011;14792;50.886;6.468;2024-02-04T15:17:50;1.98;;;1.72;;
27305;SDS011;14792;50.886;6.468;2024-02-04T15:20:51;4.87;;;2.42;;
27305;SDS011;14792;50.886;6.468;2024-02-04T15:23:53;3.70;;;2.22;;
27305;SDS011;14792;50.886;6.468;2024-02-04T15:26:54;2.65;;;2.00;;
27305;SDS011;14792;50.886;6.468;2024-02-04T15:29:56;2.52;;;1.87;;
27305;SDS011;14792;50.886;6.468;2024-02-04T15:32:58;2.52;;;1.30;;
27305;SDS011;14792;50.886;6.468;2024-02-04T15:35:59;3.05;;;1.22;;
27305;SDS011;14792;50.886;6.468;2024-02-04T15:39:01;1.47;;;1.10;;
27305;SDS011;14792;50.886;6.468;2024-02-04T15:42:03;2.47;;;1.10;;
27305;SDS011;14792;50.886;6.468;2024-02-04T15:45:04;1.35;;;1.12;;
27305;SDS011;14792;50.886;6.468;2024-02-04T15:48:06;1.98;;;1.15;;
27305;SDS011;14792;50.886;6.468;2024-02-04T15:51:07;1.22;;;0.93;;
27305;SDS011;14792;50.886;6.468;2024-02-04T15:54:09;3.05;;;0.82;;
27305;SDS011;14792;50.886;6.468;2024-02-04T15:57:11;0.80;;;0.80;;
27305;SDS011;14792;50.886;6.468;2024-02-04T16:00:12;2.90;;;0.80;;
27305;SDS011;14792;50.886;6.468;2024-02-04T16:03:20;2.00;;;0.90;;
27305;SDS011;14792;50.886;6.468;2024-02-04T16:06:21;2.80;;;1.30;;
27305;SDS011;14792;50.886;6.468;2024-02-04T16:09:23;2.10;;;1.57;;
27305;SDS011;14792;50.886;6.468;2024-02-04T16:12:24;2.22;;;1.12;;
27305;SDS011;14792;50.886;6.468;2024-02-04T16:15:27;2.90;;;1.22;;
27305;SDS011;14792;50.886;6.468;2024-02-04T16:18:27;1.45;;;0.90;;
27305;SDS011;14792;50.886;6.468;2024-02-04T16:21:29;1.95;;;1.05;;
27305;SDS011;14792;50.886;6.468;2024-02-04T16:24:31;0.60;;;0.55;;
27305;SDS011;14792;50.886;6.468;2024-02-04T16:27:32;1.65;;;0.65;;
27305;SDS011;14792;50.886;6.468;2024-02-04T16:30:34;1.77;;;0.88;;
27305;SDS011;14792;50.886;6.468;2024-02-04T16:33:35;2.30;;;0.70;;
27305;SDS011;14792;50.886;6.468;2024-02-04T16:36:37;2.27;;;0.70;;
27305;SDS011;14792;50.886;6.468;2024-02-04T16:39:39;0.80;;;0.60;;
27305;SDS011;14792;50.886;6.468;2024-02-04T16:42:40;1.92;;;0.90;;
27305;SDS011;14792;50.886;6.468;2024-02-04T16:45:42;1.72;;;0.98;;
27305;SDS011;14792;50.886;6.468;2024-02-04T16:48:43;3.77;;;1.00;;
27305;SDS011;14792;50.886;6.468;2024-02-04T16:51:45;2.62;;;0.75;;
27305;SDS011;14792;50.886;6.468;2024-02-04T16:54:47;4.58;;;1.00;;
27305;SDS011;14792;50.886;6.468;2024-02-04T16:57:48;2.80;;;1.17;;
27305;SDS011;14792;50.886;6.468;2024-02-04T17:00:50;2.12;;;1.00;;
27305;SDS011;14792;50.886;6.468;2024-02-04T17:03:51;3.72;;;0.90;;
27305;SDS011;14792;50.886;6.468;2024-02-04T17:06:53;2.22;;;1.17;;
27305;SDS011;14792;50.886;6.468;2024-02-04T17:09:54;1.32;;;1.17;;
27305;SDS011;14792;50.886;6.468;2024-02-04T17:12:56;2.40;;;1.22;;
27305;SDS011;14792;50.886;6.468;2024-02-04T17:15:58;1.92;;;1.27;;
27305;SDS011;14792;50.886;6.468;2024-02-04T17:19:04;2.55;;;1.20;;
27305;SDS011;14792;50.886;6.468;2024-02-04T17:22:02;2.92;;;1.70;;
27305;SDS011;14792;50.886;6.468;2024-02-04T17:25:03;2.08;;;1.15;;
27305;SDS011;14792;50.886;6.468;2024-02-04T17:28:04;2.33;;;1.57;;
27305;SDS011;14792;50.886;6.468;2024-02-04T17:31:06;3.87;;;1.35;;
27305;SDS011;14792;50.886;6.468;2024-02-04T17:34:07;5.75;;;1.60;;
27305;SDS011;14792;50.886;6.468;2024-02-04T17:37:09;3.85;;;1.32;;
27305;SDS011;14792;50.886;6.468;2024-02-04T17:40:11;4.47;;;1.37;;
27305;SDS011;14792;50.886;6.468;2024-02-04T17:43:12;4.75;;;1.60;;
27305;SDS011;14792;50.886;6.468;2024-02-04T17:46:14;1.77;;;1.30;;
27305;SDS011;14792;50.886;6.468;2024-02-04T17:49:15;2.37;;;1.45;;
27305;SDS011;14792;50.886;6.468;2024-02-04T17:52:18;3.27;;;1.70;;
27305;SDS011;14792;50.886;6.468;2024-02-04T17:55:19;2.55;;;1.60;;
27305;SDS011;14792;50.886;6.468;2024-02-04T17:58:20;4.28;;;2.17;;
27305;SDS011;14792;50.886;6.468;2024-02-04T18:01:22;4.30;;;2.10;;
27305;SDS011;14792;50.886;6.468;2024-02-04T18:04:23;4.33;;;2.27;;
27305;SDS011;14792;50.886;6.468;2024-02-04T18:07:25;5.60;;;2.40;;
27305;SDS011;14792;50.886;6.468;2024-02-04T18:10:26;3.60;;;2.52;;
27305;SDS011;14792;50.886;6.468;2024-02-04T18:13:28;5.22;;;2.75;;
27305;SDS011;14792;50.886;6.468;2024-02-04T18:16:30;2.77;;;2.00;;
27305;SDS011;14792;50.886;6.468;2024-02-04T18:19:32;3.50;;;2.00;;
27305;SDS011;14792;50.886;6.468;2024-02-04T18:22:34;7.60;;;2.37;;
27305;SDS011;14792;50.886;6.468;2024-02-04T18:25:34;3.58;;;2.08;;